createdAt,value
2023-01-18T00:01:11.169Z,9.52
2023-01-18T00:03:38.968Z,10.63
2023-01-18T00:06:08.186Z,6.82
2023-01-18T00:08:36.621Z,6.38
2023-01-18T00:11:05.074Z,6.35
2023-01-18T00:13:32.522Z,7.10
2023-01-18T00:16:08.198Z,5.68
2023-01-18T00:18:36.311Z,5.55
2023-01-18T00:21:04.482Z,5.38
2023-01-18T00:23:31.683Z,6.00
2023-01-18T00:26:00.776Z,5.65
2023-01-18T00:28:27.919Z,6.15
2023-01-18T00:30:55.052Z,8.20
2023-01-18T00:33:22.250Z,5.43
2023-01-18T00:36:04.946Z,5.90
2023-01-18T00:38:32.017Z,5.57
2023-01-18T00:40:59.139Z,5.43
2023-01-18T00:43:41.634Z,5.60
2023-01-18T00:46:12.985Z,6.60
2023-01-18T00:48:40.773Z,6.35
2023-01-18T00:51:09.070Z,6.88
2023-01-18T00:53:38.144Z,5.70
2023-01-18T00:56:06.888Z,5.97
2023-01-18T00:58:34.039Z,5.53
2023-01-18T01:01:01.300Z,5.93
2023-01-18T01:03:28.482Z,6.75
2023-01-18T01:06:17.237Z,5.15
2023-01-18T01:08:49.980Z,5.57
2023-01-18T01:11:17.082Z,5.43
2023-01-18T01:14:04.057Z,5.75
2023-01-18T01:16:51.127Z,5.00
2023-01-18T01:19:38.169Z,5.65
2023-01-18T01:22:25.158Z,6.72
2023-01-18T01:25:12.098Z,5.50
2023-01-18T01:27:39.191Z,5.60
2023-01-18T01:30:06.573Z,5.65
2023-01-18T01:32:33.637Z,6.15
2023-01-18T01:35:00.765Z,7.03
2023-01-18T01:37:27.406Z,6.47
2023-01-18T01:39:54.509Z,6.03
2023-01-18T01:42:21.593Z,5.77
2023-01-18T01:44:50.368Z,7.07
2023-01-18T01:47:24.929Z,5.70
2023-01-18T01:49:56.123Z,6.85
2023-01-18T01:52:24.866Z,7.30
2023-01-18T01:54:52.035Z,7.13
2023-01-18T01:57:21.293Z,7.28
2023-01-18T01:59:53.084Z,7.57
2023-01-18T02:02:20.207Z,7.65
2023-01-18T02:04:53.411Z,7.38
2023-01-18T02:07:21.448Z,6.18
2023-01-18T02:09:48.754Z,6.65
2023-01-18T02:12:16.357Z,8.70
2023-01-18T02:14:43.693Z,7.03
2023-01-18T02:17:18.200Z,6.28
2023-01-18T02:20:06.832Z,6.90
2023-01-18T02:22:49.472Z,7.55
2023-01-18T02:25:36.440Z,7.03
2023-01-18T02:28:08.225Z,7.33
2023-01-18T02:30:39.394Z,6.97
2023-01-18T02:33:11.160Z,7.78
2023-01-18T02:35:38.194Z,6.53
2023-01-18T02:38:10.099Z,6.35
2023-01-18T02:40:38.185Z,7.20
2023-01-18T02:43:27.329Z,7.10
2023-01-18T02:46:14.707Z,7.60
2023-01-18T02:48:41.694Z,6.72
2023-01-18T02:51:09.161Z,6.43
2023-01-18T02:53:39.313Z,7.95
2023-01-18T02:56:06.418Z,8.05
2023-01-18T02:58:34.864Z,8.45
2023-01-18T03:01:04.190Z,8.60
2023-01-18T03:03:31.075Z,7.70
2023-01-18T03:06:00.173Z,9.00
2023-01-18T03:08:31.357Z,6.57
2023-01-18T03:11:01.137Z,7.80
2023-01-18T03:13:33.432Z,6.85
2023-01-18T03:16:06.821Z,6.30
2023-01-18T03:19:01.635Z,7.35
2023-01-18T03:21:48.292Z,7.15
2023-01-18T03:24:16.240Z,7.40
2023-01-18T03:26:47.017Z,7.63
2023-01-18T03:29:35.316Z,7.72
2023-01-18T03:32:31.060Z,7.13
2023-01-18T03:35:15.402Z,6.72
2023-01-18T03:37:44.066Z,6.90
2023-01-18T03:40:13.558Z,8.38
2023-01-18T03:42:42.659Z,8.40
2023-01-18T03:45:13.378Z,7.38
2023-01-18T03:47:40.581Z,6.90
2023-01-18T03:50:08.125Z,6.70
2023-01-18T03:52:38.622Z,6.32
2023-01-18T03:55:09.042Z,7.65
2023-01-18T03:57:44.371Z,7.03
2023-01-18T04:00:12.073Z,7.40
2023-01-18T04:02:39.300Z,9.23
2023-01-18T04:05:07.261Z,7.47
2023-01-18T04:07:34.336Z,7.65
2023-01-18T04:10:01.207Z,8.38
2023-01-18T04:12:28.993Z,7.50
2023-01-18T04:14:56.145Z,7.53
2023-01-18T04:17:23.406Z,8.52
2023-01-18T04:19:50.497Z,7.15
2023-01-18T04:22:17.638Z,8.35
2023-01-18T04:24:44.962Z,7.87
2023-01-18T04:27:12.215Z,7.93
2023-01-18T04:29:39.418Z,7.40
2023-01-18T04:32:06.590Z,8.13
2023-01-18T04:34:33.909Z,8.75
2023-01-18T04:37:00.739Z,9.85
2023-01-18T04:39:27.891Z,7.93
2023-01-18T04:41:57.123Z,8.00
2023-01-18T04:44:24.678Z,7.65
2023-01-18T04:46:51.535Z,8.97
2023-01-18T04:49:18.609Z,7.53
2023-01-18T04:51:46.403Z,8.70
2023-01-18T04:54:14.554Z,9.05
2023-01-18T04:56:41.657Z,8.80
2023-01-18T04:59:08.763Z,8.90
2023-01-18T05:01:36.665Z,7.57
2023-01-18T05:04:03.883Z,7.45
2023-01-18T05:06:30.978Z,7.53
2023-01-18T05:08:58.054Z,7.85
2023-01-18T05:11:25.125Z,7.72
2023-01-18T05:13:52.214Z,8.55
2023-01-18T05:16:20.853Z,7.95
2023-01-18T05:18:47.973Z,9.07
2023-01-18T05:21:15.479Z,8.80
2023-01-18T05:23:42.623Z,8.13
2023-01-18T05:26:14.695Z,9.50
2023-01-18T05:28:42.343Z,8.63
2023-01-18T05:31:09.799Z,9.80
2023-01-18T05:33:36.815Z,10.93
2023-01-18T05:36:04.083Z,13.50
2023-01-18T05:38:31.216Z,11.40
2023-01-18T05:40:58.300Z,12.57
2023-01-18T05:43:26.685Z,12.80
2023-01-18T05:45:53.920Z,12.88
2023-01-18T05:48:21.420Z,14.65
2023-01-18T05:50:48.947Z,12.23
2023-01-18T05:53:17.880Z,11.73
2023-01-18T05:55:45.370Z,12.65
2023-01-18T05:58:12.160Z,11.27
2023-01-18T06:00:39.292Z,13.45
2023-01-18T06:03:06.327Z,12.18
2023-01-18T06:05:33.302Z,10.98
2023-01-18T06:08:00.389Z,13.18
2023-01-18T06:10:27.434Z,12.98
2023-01-18T06:12:54.498Z,13.77
2023-01-18T06:15:21.157Z,13.80
2023-01-18T06:17:48.209Z,14.48
2023-01-18T06:20:15.706Z,11.68
2023-01-18T06:22:42.840Z,13.03
2023-01-18T06:25:10.222Z,14.70
2023-01-18T06:27:39.309Z,15.43
2023-01-18T06:30:07.045Z,16.65
2023-01-18T06:32:34.213Z,18.00
2023-01-18T06:35:01.417Z,20.85
2023-01-18T06:37:28.619Z,21.25
2023-01-18T06:39:55.764Z,20.77
2023-01-18T06:42:22.815Z,27.05
2023-01-18T06:44:49.868Z,20.90
2023-01-18T06:47:19.842Z,24.23
2023-01-18T06:49:48.452Z,21.40
2023-01-18T06:52:16.224Z,25.27
2023-01-18T06:54:44.685Z,24.65
2023-01-18T06:57:12.457Z,25.35
2023-01-18T06:59:40.112Z,21.45
2023-01-18T07:02:07.634Z,22.90
2023-01-18T07:04:41.284Z,21.58
2023-01-18T07:07:08.352Z,20.33
2023-01-18T07:09:35.350Z,24.00
2023-01-18T07:12:02.382Z,23.53
2023-01-18T07:14:29.548Z,27.13
2023-01-18T07:16:56.713Z,28.20
2023-01-18T07:19:23.498Z,27.27
2023-01-18T07:21:51.721Z,25.80
2023-01-18T07:24:18.856Z,26.77
2023-01-18T07:26:46.025Z,29.77
2023-01-18T07:29:13.208Z,30.00
2023-01-18T07:31:40.475Z,28.63
2023-01-18T07:34:07.613Z,28.27
2023-01-18T07:36:34.741Z,28.20
2023-01-18T07:39:03.230Z,24.45
2023-01-18T07:41:31.120Z,27.10
2023-01-18T07:43:58.506Z,29.20
2023-01-18T07:46:26.203Z,27.77
2023-01-18T07:48:53.388Z,26.38
2023-01-18T07:51:22.272Z,27.58
2023-01-18T07:53:49.651Z,24.90
2023-01-18T07:56:17.529Z,25.02
2023-01-18T07:58:45.472Z,26.95
2023-01-18T08:01:14.280Z,23.73
2023-01-18T08:03:42.994Z,25.83
2023-01-18T08:06:10.141Z,23.40
2023-01-18T08:08:37.462Z,24.88
2023-01-18T08:11:06.401Z,22.23
2023-01-18T08:13:33.706Z,23.60
2023-01-18T08:16:01.616Z,24.47
2023-01-18T08:18:28.738Z,26.33
2023-01-18T08:20:55.819Z,27.52
2023-01-18T08:23:22.869Z,24.20
2023-01-18T08:25:50.399Z,23.98
2023-01-18T08:28:17.669Z,21.40
2023-01-18T08:30:46.653Z,21.40
2023-01-18T08:33:13.850Z,21.52
2023-01-18T08:35:42.184Z,19.35
2023-01-18T08:38:09.690Z,19.05
2023-01-18T08:40:36.360Z,21.90
2023-01-18T08:43:04.366Z,20.40
2023-01-18T08:45:31.565Z,20.65
2023-01-18T08:48:00.562Z,21.30
2023-01-18T08:50:27.954Z,19.45
2023-01-18T08:52:55.071Z,20.50
2023-01-18T08:55:22.727Z,19.30
2023-01-18T08:57:50.283Z,19.55
2023-01-18T09:00:17.466Z,16.48
2023-01-18T09:02:44.193Z,15.65
2023-01-18T09:05:11.421Z,14.57
2023-01-18T09:07:38.541Z,13.82
2023-01-18T09:10:05.918Z,14.18
2023-01-18T09:12:34.687Z,12.55
2023-01-18T09:15:01.831Z,13.55
2023-01-18T09:17:29.084Z,13.50
2023-01-18T09:19:56.151Z,14.77
2023-01-18T09:22:24.232Z,12.93
2023-01-18T09:24:51.649Z,13.80
2023-01-18T09:27:18.986Z,13.40
2023-01-18T09:29:52.099Z,14.40
2023-01-18T09:32:19.972Z,15.00
2023-01-18T09:34:50.721Z,13.90
2023-01-18T09:37:19.187Z,13.82
2023-01-18T09:39:52.098Z,13.93
2023-01-18T09:42:22.519Z,13.80
2023-01-18T09:44:52.122Z,13.15
2023-01-18T09:47:21.978Z,12.18
2023-01-18T09:50:10.811Z,11.15
2023-01-18T09:52:39.006Z,11.90
2023-01-18T09:55:14.900Z,11.57
2023-01-18T09:57:45.895Z,11.63
2023-01-18T10:00:17.073Z,10.83
2023-01-18T10:02:45.048Z,10.70
2023-01-18T10:05:14.283Z,10.65
2023-01-18T10:07:47.795Z,10.30
2023-01-18T10:10:18.909Z,10.57
2023-01-18T10:12:50.109Z,11.00
2023-01-18T10:15:20.374Z,11.05
2023-01-18T10:17:48.477Z,11.20
2023-01-18T10:20:18.792Z,9.63
2023-01-18T10:22:49.890Z,9.48
2023-01-18T10:25:16.976Z,8.75
2023-01-18T10:27:44.349Z,9.95
2023-01-18T10:30:18.509Z,8.63
2023-01-18T10:32:51.007Z,8.20
2023-01-18T10:35:25.688Z,8.07
2023-01-18T10:37:53.069Z,8.77
2023-01-18T10:40:20.206Z,7.53
2023-01-18T10:42:47.300Z,7.50
2023-01-18T10:45:23.271Z,7.68
2023-01-18T10:47:51.313Z,7.88
2023-01-18T10:50:22.509Z,7.85
2023-01-18T10:52:49.666Z,7.90
2023-01-18T10:55:18.140Z,7.47
2023-01-18T10:57:47.755Z,7.53
2023-01-18T11:00:26.445Z,7.80
2023-01-18T11:02:55.415Z,7.80
2023-01-18T11:05:29.260Z,8.00
2023-01-18T11:08:13.148Z,6.88
2023-01-18T11:10:41.473Z,6.03
2023-01-18T11:13:28.484Z,6.35
2023-01-18T11:16:11.191Z,5.50
2023-01-18T11:18:38.291Z,5.20
2023-01-18T11:21:09.753Z,5.03
2023-01-18T11:23:37.159Z,4.68
2023-01-18T11:26:14.913Z,4.70
2023-01-18T11:28:52.416Z,4.47
2023-01-18T11:31:22.196Z,4.78
2023-01-18T11:33:52.371Z,5.03
2023-01-18T11:36:20.691Z,4.53
2023-01-18T11:38:48.084Z,4.53
2023-01-18T11:41:18.078Z,5.15
2023-01-18T11:43:50.232Z,4.88
2023-01-18T11:46:25.767Z,5.55
2023-01-18T11:49:12.770Z,5.65
2023-01-18T11:51:46.226Z,5.80
2023-01-18T11:54:33.261Z,5.88
2023-01-18T11:57:02.244Z,6.23
2023-01-18T11:59:31.033Z,6.13
2023-01-18T12:02:18.359Z,6.45
2023-01-18T12:04:46.443Z,6.60
2023-01-18T12:07:33.411Z,6.30
2023-01-18T12:10:01.765Z,6.35
2023-01-18T12:12:32.098Z,6.60
2023-01-18T12:14:59.363Z,6.83
2023-01-18T12:17:46.707Z,7.45
2023-01-18T12:20:33.795Z,7.95
2023-01-18T12:23:16.326Z,7.00
2023-01-18T12:26:03.253Z,7.45
2023-01-18T12:28:42.935Z,8.50
2023-01-18T12:31:29.955Z,8.00
2023-01-18T12:34:06.936Z,8.32
2023-01-18T12:36:53.979Z,8.05
2023-01-18T12:39:24.306Z,8.32
2023-01-18T12:41:57.497Z,8.27
2023-01-18T12:44:28.753Z,7.18
2023-01-18T12:47:09.230Z,8.43
2023-01-18T12:49:39.917Z,9.25
2023-01-18T12:52:18.521Z,7.33
2023-01-18T12:54:49.554Z,7.50
2023-01-18T12:57:17.182Z,8.30
2023-01-18T12:59:48.124Z,8.07
2023-01-18T13:02:35.222Z,7.45
2023-01-18T13:05:07.072Z,7.60
2023-01-18T13:07:39.100Z,7.43
2023-01-18T13:10:08.008Z,7.60
2023-01-18T13:12:35.764Z,8.00
2023-01-18T13:15:08.891Z,8.93
2023-01-18T13:17:50.993Z,8.02
2023-01-18T13:20:19.155Z,8.70
2023-01-18T13:22:46.575Z,8.52
2023-01-18T13:25:23.053Z,8.55
2023-01-18T13:28:01.024Z,8.23
2023-01-18T13:30:29.263Z,8.10
2023-01-18T13:32:56.694Z,8.75
2023-01-18T13:35:32.725Z,8.30
2023-01-18T13:38:03.001Z,8.57
2023-01-18T13:40:30.206Z,8.07
2023-01-18T13:42:57.401Z,8.20
2023-01-18T13:45:26.099Z,9.85
2023-01-18T13:47:56.214Z,8.10
2023-01-18T13:50:31.782Z,8.13
2023-01-18T13:53:14.421Z,8.68
2023-01-18T13:55:42.471Z,8.50
2023-01-18T13:58:18.482Z,10.73
2023-01-18T14:00:48.299Z,9.43
2023-01-18T14:03:17.204Z,8.38
2023-01-18T14:05:47.034Z,7.82
2023-01-18T14:08:23.032Z,7.55
2023-01-18T14:10:52.922Z,8.50
2023-01-18T14:13:39.944Z,8.73
2023-01-18T14:16:07.215Z,8.25
2023-01-18T14:18:34.352Z,9.75
2023-01-18T14:21:06.175Z,7.13
2023-01-18T14:23:34.258Z,8.43
2023-01-18T14:26:02.377Z,8.18
2023-01-18T14:28:34.827Z,8.20
2023-01-18T14:31:04.686Z,8.30
2023-01-18T14:33:34.302Z,6.78
2023-01-18T14:36:02.041Z,7.25
2023-01-18T14:38:30.057Z,6.50
2023-01-18T14:40:58.798Z,6.75
2023-01-18T14:43:27.937Z,6.88
2023-01-18T14:45:57.511Z,6.20
2023-01-18T14:48:26.236Z,6.40
2023-01-18T14:50:54.797Z,6.68
2023-01-18T14:53:24.281Z,6.03
2023-01-18T14:56:08.989Z,7.25
2023-01-18T14:58:38.909Z,6.40
2023-01-18T15:01:09.140Z,6.82
2023-01-18T15:03:36.699Z,7.93
2023-01-18T15:06:12.416Z,6.97
2023-01-18T15:08:40.179Z,7.13
2023-01-18T15:11:07.833Z,7.70
2023-01-18T15:13:39.097Z,12.27
2023-01-18T15:16:06.984Z,6.72
2023-01-18T15:18:34.065Z,8.00
2023-01-18T15:21:03.170Z,7.13
2023-01-18T15:23:30.781Z,6.88
2023-01-18T15:25:58.273Z,7.60
2023-01-18T15:28:30.581Z,7.07
2023-01-18T15:30:57.882Z,7.25
2023-01-18T15:33:26.073Z,7.28
2023-01-18T15:35:56.627Z,7.20
2023-01-18T15:38:24.008Z,8.85
2023-01-18T15:41:11.429Z,7.30
2023-01-18T15:43:42.138Z,7.63
2023-01-18T15:46:10.677Z,6.78
2023-01-18T15:48:40.231Z,7.60
2023-01-18T15:51:08.474Z,8.70
2023-01-18T15:53:38.503Z,8.68
2023-01-18T15:56:08.028Z,8.38
2023-01-18T15:58:36.158Z,8.53
2023-01-18T16:01:05.565Z,7.10
2023-01-18T16:03:41.648Z,7.57
2023-01-18T16:06:12.087Z,10.70
2023-01-18T16:08:57.283Z,8.50
2023-01-18T16:11:31.906Z,9.02
2023-01-18T16:14:00.151Z,9.90
2023-01-18T16:16:27.846Z,9.20
2023-01-18T16:19:01.398Z,8.50
2023-01-18T16:21:34.130Z,9.25
2023-01-18T16:24:01.233Z,10.07
2023-01-18T16:26:30.719Z,7.97
2023-01-18T16:29:06.921Z,9.13
2023-01-18T16:31:34.897Z,7.57
2023-01-18T16:34:03.146Z,9.55
2023-01-18T16:36:38.014Z,7.77
2023-01-18T16:39:09.144Z,7.75
2023-01-18T16:41:36.223Z,7.45
2023-01-18T16:44:04.274Z,7.53
2023-01-18T16:46:33.062Z,8.93
2023-01-18T16:49:00.161Z,7.03
2023-01-18T16:51:28.696Z,6.93
2023-01-18T16:53:55.898Z,9.87
2023-01-18T16:56:23.041Z,8.48
2023-01-18T16:58:50.167Z,7.22
2023-01-18T17:01:17.656Z,9.18
2023-01-18T17:03:44.851Z,8.70
2023-01-18T17:06:16.413Z,7.78
2023-01-18T17:08:43.574Z,9.93
2023-01-18T17:11:12.340Z,9.95
2023-01-18T17:13:40.593Z,8.07
2023-01-18T17:16:11.909Z,7.20
2023-01-18T17:18:38.999Z,8.32
2023-01-18T17:21:06.133Z,8.45
2023-01-18T17:23:33.217Z,7.03
2023-01-18T17:26:00.354Z,8.40
2023-01-18T17:28:28.362Z,8.07
2023-01-18T17:30:55.711Z,9.13
2023-01-18T17:33:24.017Z,8.13
2023-01-18T17:35:52.141Z,8.35
2023-01-18T17:38:25.090Z,8.65
2023-01-18T17:40:53.824Z,8.25
2023-01-18T17:43:33.004Z,7.50
2023-01-18T17:46:04.749Z,13.20
2023-01-18T17:48:32.140Z,10.23
2023-01-18T17:50:59.299Z,10.50
2023-01-18T17:53:26.594Z,10.50
2023-01-18T17:55:53.799Z,10.52
2023-01-18T17:58:20.994Z,13.52
2023-01-18T18:00:48.163Z,10.43
2023-01-18T18:03:15.302Z,9.67
2023-01-18T18:05:42.385Z,10.15
2023-01-18T18:08:09.623Z,9.35
2023-01-18T18:10:36.776Z,10.88
2023-01-18T18:13:04.274Z,10.05
2023-01-18T18:15:31.690Z,10.83
2023-01-18T18:17:58.879Z,10.00
2023-01-18T18:20:25.960Z,10.45
2023-01-18T18:22:53.079Z,12.32
2023-01-18T18:25:20.077Z,10.55
2023-01-18T18:27:47.667Z,10.70
2023-01-18T18:30:15.744Z,14.43
2023-01-18T18:32:42.801Z,13.13
2023-01-18T18:35:23.904Z,11.57
2023-01-18T18:37:51.898Z,12.80
2023-01-18T18:40:19.203Z,13.60
2023-01-18T18:42:56.416Z,15.32
2023-01-18T18:45:27.898Z,11.33
2023-01-18T18:47:54.953Z,14.13
2023-01-18T18:50:22.037Z,13.90
2023-01-18T18:52:49.159Z,12.30
2023-01-18T18:55:16.279Z,11.80
2023-01-18T18:57:43.438Z,15.05
2023-01-18T19:00:10.824Z,11.98
2023-01-18T19:02:37.958Z,11.93
2023-01-18T19:05:05.268Z,11.35
2023-01-18T19:07:34.010Z,16.92
2023-01-18T19:10:01.328Z,19.20
2023-01-18T19:12:28.422Z,18.40
2023-01-18T19:14:55.095Z,20.27
2023-01-18T19:17:30.327Z,18.17
2023-01-18T19:19:58.184Z,16.42
2023-01-18T19:22:25.382Z,13.43
2023-01-18T19:24:52.456Z,11.35
2023-01-18T19:27:21.129Z,10.60
2023-01-18T19:29:48.297Z,10.30
2023-01-18T19:32:15.585Z,11.40
2023-01-18T19:34:42.680Z,11.35
2023-01-18T19:37:09.820Z,17.83
2023-01-18T19:39:36.931Z,16.10
2023-01-18T19:42:04.396Z,13.32
2023-01-18T19:44:31.778Z,11.55
2023-01-18T19:46:58.938Z,11.40
2023-01-18T19:49:26.284Z,10.88
2023-01-18T19:51:54.492Z,10.32
2023-01-18T19:54:21.964Z,11.77
2023-01-18T19:56:49.512Z,10.97
2023-01-18T19:59:16.679Z,10.32
2023-01-18T20:01:44.613Z,9.88
2023-01-18T20:04:13.221Z,9.63
2023-01-18T20:06:43.139Z,10.17
2023-01-18T20:09:19.650Z,8.40
2023-01-18T20:11:48.481Z,10.02
2023-01-18T20:14:15.772Z,10.67
2023-01-18T20:16:45.704Z,11.65
2023-01-18T20:19:14.034Z,12.95
2023-01-18T20:21:41.096Z,12.30
2023-01-18T20:24:08.732Z,11.20
2023-01-18T20:26:39.582Z,11.07
2023-01-18T20:29:07.931Z,13.70
2023-01-18T20:31:36.127Z,12.57
2023-01-18T20:34:03.498Z,11.75
2023-01-18T20:36:32.940Z,11.48
2023-01-18T20:39:00.018Z,11.23
2023-01-18T20:41:27.106Z,9.98
2023-01-18T20:43:54.238Z,11.75
2023-01-18T20:46:21.530Z,14.90
2023-01-18T20:48:49.572Z,10.80
2023-01-18T20:51:17.825Z,11.00
2023-01-18T20:53:45.125Z,12.43
2023-01-18T20:56:27.946Z,10.48
2023-01-18T20:58:56.079Z,13.30
2023-01-18T21:01:23.219Z,12.50
2023-01-18T21:03:54.440Z,16.00
2023-01-18T21:06:21.899Z,12.30
2023-01-18T21:08:52.529Z,12.17
2023-01-18T21:11:23.052Z,11.32
2023-01-18T21:13:50.547Z,14.13
2023-01-18T21:16:18.027Z,11.57
2023-01-18T21:18:45.224Z,11.30
2023-01-18T21:21:13.123Z,11.95
2023-01-18T21:23:40.260Z,13.35
2023-01-18T21:26:08.505Z,10.00
2023-01-18T21:28:35.549Z,11.80
2023-01-18T21:31:02.722Z,9.27
2023-01-18T21:33:30.022Z,11.10
2023-01-18T21:36:02.487Z,11.32
2023-01-18T21:38:30.123Z,12.13
2023-01-18T21:40:57.212Z,10.77
2023-01-18T21:43:43.881Z,9.75
2023-01-18T21:46:11.562Z,10.02
2023-01-18T21:48:38.720Z,9.82
2023-01-18T21:51:26.161Z,12.13
2023-01-18T21:54:13.120Z,10.40
2023-01-18T21:56:40.292Z,11.15
2023-01-18T21:59:07.465Z,12.00
2023-01-18T22:01:37.663Z,13.73
2023-01-18T22:04:27.368Z,14.27
2023-01-18T22:06:54.750Z,13.57
2023-01-18T22:09:21.834Z,11.00
2023-01-18T22:11:49.008Z,8.73
2023-01-18T22:14:16.160Z,10.25
2023-01-18T22:16:43.214Z,9.50
2023-01-18T22:19:11.614Z,10.45
2023-01-18T22:21:38.954Z,11.45
2023-01-18T22:24:06.597Z,11.20
2023-01-18T22:26:36.138Z,12.13
2023-01-18T22:29:03.457Z,12.20
2023-01-18T22:31:30.547Z,9.93
2023-01-18T22:33:57.680Z,11.75
2023-01-18T22:36:25.066Z,11.48
2023-01-18T22:38:53.866Z,12.32
2023-01-18T22:41:22.695Z,9.50
2023-01-18T22:43:50.973Z,10.70
2023-01-18T22:46:19.206Z,10.10
2023-01-18T22:48:46.884Z,10.23
2023-01-18T22:51:17.445Z,13.52
2023-01-18T22:53:44.785Z,10.60
2023-01-18T22:56:13.308Z,10.75
2023-01-18T22:58:40.655Z,11.57
2023-01-18T23:01:14.594Z,11.02
2023-01-18T23:03:41.859Z,9.88
2023-01-18T23:06:09.302Z,10.73
2023-01-18T23:08:42.442Z,12.83
2023-01-18T23:11:12.475Z,12.82
2023-01-18T23:13:42.303Z,13.60
2023-01-18T23:16:30.696Z,11.73
2023-01-18T23:18:57.763Z,11.13
2023-01-18T23:21:24.832Z,13.27
2023-01-18T23:23:52.065Z,13.73
2023-01-18T23:26:19.162Z,13.10
2023-01-18T23:28:46.294Z,16.98
2023-01-18T23:31:15.244Z,13.40
2023-01-18T23:33:42.567Z,14.05
2023-01-18T23:36:10.461Z,16.30
2023-01-18T23:38:57.606Z,16.33
2023-01-18T23:41:44.571Z,13.53
2023-01-18T23:44:31.634Z,14.60
2023-01-18T23:47:18.594Z,14.47
2023-01-18T23:50:05.579Z,13.47
2023-01-18T23:52:52.252Z,12.67
2023-01-18T23:55:19.453Z,16.38
2023-01-18T23:57:46.565Z,16.30
